Time;durP1;ratioP1;P1;durP2;ratioP2;P2;SDS_P1;SDS_P2;PMS_P1;PMS_P2;Temp;Humidity;BMP_temperature;BMP_pressure;BME280_temperature;BME280_humidity;BME280_pressure;Samples;Min_cycle;Max_cycle;Signal;HPM_P1;HPM_P2
2022/02/21 00:00:18;;;;;;;1.65;0.88;;;10.90;99.90;;;;;;2005496;71;21116;-86
2022/02/21 00:02:46;;;;;;;2.22;0.60;;;11.00;99.90;;;;;;2015741;71;20992;-90
2022/02/21 00:05:15;;;;;;;2.42;0.80;;;10.90;99.90;;;;;;2011143;71;21066;-89
2022/02/21 00:07:42;;;;;;;4.67;0.72;;;10.90;99.90;;;;;;2010977;71;21141;-77
2022/02/21 00:10:11;;;;;;;1.30;0.62;;;10.90;99.90;;;;;;2011036;71;21153;-78
2022/02/21 00:12:40;;;;;;;0.95;0.55;;;11.00;99.90;;;;;;2016279;71;21039;-82
2022/02/21 00:15:08;;;;;;;1.83;0.73;;;11.10;99.90;;;;;;1982285;71;21031;-88
2022/02/21 00:17:37;;;;;;;2.67;0.72;;;11.10;99.90;;;;;;2003256;71;21128;-88
2022/02/21 00:20:05;;;;;;;4.95;1.20;;;11.00;99.90;;;;;;2007871;71;21125;-87
2022/02/21 00:22:32;;;;;;;2.52;0.70;;;11.10;99.90;;;;;;2009636;71;21059;-82
2022/02/21 00:24:59;;;;;;;3.17;0.80;;;11.20;99.90;;;;;;2015774;71;21015;-88
2022/02/21 00:27:27;;;;;;;1.17;0.80;;;11.20;99.90;;;;;;2015982;71;21062;-88
2022/02/21 00:29:54;;;;;;;1.95;0.75;;;11.20;99.90;;;;;;2010506;71;21133;-86
2022/02/21 00:32:25;;;;;;;1.67;0.60;;;11.20;99.90;;;;;;2010856;71;21093;-90
2022/02/21 00:34:53;;;;;;;1.10;0.70;;;11.20;99.90;;;;;;2010984;71;21112;-82
2022/02/21 00:37:20;;;;;;;3.58;1.02;;;11.20;99.90;;;;;;2011013;71;21050;-78
2022/02/21 00:39:47;;;;;;;2.90;0.75;;;11.30;99.90;;;;;;2000846;71;21049;-82
2022/02/21 00:42:21;;;;;;;3.08;0.80;;;11.30;99.90;;;;;;2005950;71;21032;-88
2022/02/21 00:44:45;;;;;;;1.87;0.80;;;11.30;99.90;;;;;;2010090;71;21181;-90
2022/02/21 00:47:12;;;;;;;2.70;0.90;;;11.30;99.90;;;;;;2015796;71;21015;-87
2022/02/21 00:49:40;;;;;;;3.00;0.90;;;11.30;99.90;;;;;;2010555;71;21132;-84
2022/02/21 00:52:07;;;;;;;4.45;1.05;;;11.30;99.90;;;;;;2009361;71;21051;-78
2022/02/21 00:54:36;;;;;;;2.35;0.90;;;11.30;99.90;;;;;;2006886;71;21076;-84
2022/02/21 00:57:03;;;;;;;4.47;1.40;;;11.30;99.90;;;;;;2005505;71;21416;-80
2022/02/21 00:59:31;;;;;;;2.37;0.82;;;11.20;99.90;;;;;;2015694;71;21190;-86
2022/02/21 01:01:59;;;;;;;3.20;1.20;;;11.10;99.90;;;;;;2007874;71;21062;-87
2022/02/21 01:04:26;;;;;;;4.40;1.02;;;10.90;99.90;;;;;;1956230;71;21027;-85
2022/02/21 01:06:55;;;;;;;6.03;0.72;;;10.90;99.90;;;;;;2006492;71;21229;-82
2022/02/21 01:09:23;;;;;;;5.42;0.90;;;10.90;99.90;;;;;;1986687;71;21111;-79
2022/02/21 01:11:50;;;;;;;10.58;0.95;;;10.80;99.90;;;;;;2010097;71;21059;-79
2022/02/21 01:14:18;;;;;;;3.47;0.98;;;10.80;99.90;;;;;;2015236;71;21138;-79
2022/02/21 01:16:45;;;;;;;1.77;0.78;;;10.80;99.90;;;;;;2005522;71;21104;-87
2022/02/21 01:19:12;;;;;;;3.77;1.15;;;10.80;99.90;;;;;;2007905;71;21019;-86
2022/02/21 01:21:39;;;;;;;6.17;1.20;;;10.70;99.90;;;;;;2015376;71;21113;-85
2022/02/21 01:24:07;;;;;;;1.02;0.72;;;10.70;99.90;;;;;;2015878;71;21158;-83
2022/02/21 01:26:34;;;;;;;2.60;0.80;;;10.60;99.90;;;;;;2010477;71;21513;-78
2022/02/21 01:29:03;;;;;;;6.42;1.27;;;10.60;99.90;;;;;;2015560;71;21483;-82
2022/02/21 01:31:32;;;;;;;4.00;1.15;;;10.50;99.90;;;;;;2000699;71;21142;-87
2022/02/21 01:33:59;;;;;;;2.17;0.80;;;10.50;99.90;;;;;;2010429;71;21043;-78
2022/02/21 01:36:26;;;;;;;2.20;0.62;;;10.50;99.90;;;;;;2015499;71;21023;-84
2022/02/21 01:38:54;;;;;;;3.30;1.07;;;10.50;99.90;;;;;;2000506;71;21046;-87
2022/02/21 01:41:21;;;;;;;4.65;0.95;;;10.50;99.90;;;;;;1986773;71;21430;-80
2022/02/21 01:43:48;;;;;;;4.53;0.80;;;10.50;99.90;;;;;;2010569;71;21051;-86
2022/02/21 01:46:16;;;;;;;3.17;0.80;;;10.50;99.90;;;;;;2015300;71;21424;-86
2022/02/21 01:48:43;;;;;;;2.37;0.88;;;10.50;99.90;;;;;;2015399;71;21016;-88
2022/02/21 01:51:10;;;;;;;2.77;0.68;;;10.50;99.90;;;;;;2014401;71;21089;-79
2022/02/21 01:53:39;;;;;;;2.85;0.95;;;10.50;99.90;;;;;;2012536;71;21077;-84
2022/02/21 01:56:06;;;;;;;3.65;0.70;;;10.50;99.90;;;;;;2016152;71;21081;-82
2022/02/21 01:58:34;;;;;;;2.05;0.75;;;10.50;99.90;;;;;;2006425;71;21117;-82
2022/02/21 02:01:01;;;;;;;3.70;0.95;;;10.60;99.90;;;;;;2010316;71;21183;-88
2022/02/21 02:03:29;;;;;;;3.12;1.32;;;10.60;99.90;;;;;;2015424;71;21051;-75
2022/02/21 02:05:56;;;;;;;1.27;0.88;;;10.60;99.90;;;;;;2015414;71;21028;-75
2022/02/21 02:08:23;;;;;;;6.90;1.02;;;10.60;99.90;;;;;;2015772;71;21016;-78
2022/02/21 02:10:50;;;;;;;0.75;0.50;;;10.60;99.90;;;;;;2010825;71;21090;-79
2022/02/21 02:13:20;;;;;;;5.15;0.70;;;10.60;99.90;;;;;;2011381;71;21055;-85
2022/02/21 02:15:53;;;;;;;5.47;0.53;;;10.60;99.90;;;;;;2016004;71;21116;-79
2022/02/21 02:18:22;;;;;;;3.65;0.70;;;10.60;99.90;;;;;;2008712;71;21079;-84
2022/02/21 02:20:50;;;;;;;1.25;0.50;;;10.60;99.90;;;;;;2012215;71;21109;-84
2022/02/21 02:23:17;;;;;;;1.27;0.50;;;10.60;99.90;;;;;;2000578;71;21047;-77
2022/02/21 02:25:44;;;;;;;2.62;0.85;;;10.60;99.90;;;;;;2015339;71;21093;-84
2022/02/21 02:28:12;;;;;;;1.80;0.75;;;10.60;99.90;;;;;;1978913;71;21178;-85
2022/02/21 02:30:39;;;;;;;2.33;0.60;;;10.60;99.90;;;;;;2015771;71;20996;-74
2022/02/21 02:33:06;;;;;;;1.17;0.60;;;10.60;99.90;;;;;;2011329;71;21062;-80
2022/02/21 02:35:34;;;;;;;1.45;0.60;;;10.60;99.90;;;;;;2015484;71;21011;-78
2022/02/21 02:38:02;;;;;;;2.45;0.80;;;10.60;99.90;;;;;;2015424;71;21137;-88
2022/02/21 02:40:29;;;;;;;1.17;0.60;;;10.60;99.90;;;;;;2015634;71;21112;-87
2022/02/21 02:42:56;;;;;;;3.37;0.78;;;10.70;99.90;;;;;;2010242;71;21048;-78
2022/02/21 02:45:23;;;;;;;2.02;0.62;;;10.60;99.90;;;;;;1973009;71;21051;-77
2022/02/21 02:47:51;;;;;;;0.98;0.60;;;10.50;99.90;;;;;;2010147;71;21112;-84
2022/02/21 02:50:18;;;;;;;1.37;0.60;;;10.40;99.90;;;;;;2005459;71;21057;-80
2022/02/21 02:52:45;;;;;;;1.57;0.98;;;10.40;99.90;;;;;;2005273;71;21050;-79
2022/02/21 02:55:13;;;;;;;1.25;0.60;;;10.40;99.90;;;;;;2000605;71;21450;-87
2022/02/21 02:57:40;;;;;;;4.55;0.65;;;10.30;99.90;;;;;;2010488;71;21105;-86
2022/02/21 03:00:13;;;;;;;3.40;0.82;;;10.10;99.90;;;;;;2015576;71;21508;-80
2022/02/21 03:02:37;;;;;;;0.78;0.60;;;10.20;99.90;;;;;;2014987;71;21217;-86
2022/02/21 03:05:05;;;;;;;3.02;0.98;;;10.20;99.90;;;;;;2005339;71;21058;-84
2022/02/21 03:07:32;;;;;;;1.87;0.70;;;10.30;99.90;;;;;;2015404;71;21079;-74
2022/02/21 03:09:59;;;;;;;0.85;0.57;;;10.40;99.90;;;;;;2005123;71;21036;-87
2022/02/21 03:12:27;;;;;;;2.58;0.50;;;10.40;99.90;;;;;;2010345;71;21189;-83
2022/02/21 03:14:54;;;;;;;3.27;0.82;;;10.60;99.90;;;;;;2015450;71;21129;-84
2022/02/21 03:17:22;;;;;;;1.60;0.60;;;10.60;99.90;;;;;;2010346;71;21042;-79
2022/02/21 03:19:50;;;;;;;0.62;0.40;;;10.60;99.90;;;;;;2010907;71;21059;-80
2022/02/21 03:22:17;;;;;;;0.98;0.50;;;10.50;99.90;;;;;;2005223;71;21048;-80
2022/02/21 03:24:47;;;;;;;0.68;0.50;;;10.60;99.90;;;;;;2005496;71;21038;-77
2022/02/21 03:27:16;;;;;;;1.62;0.50;;;10.70;99.90;;;;;;2010523;71;21059;-78
2022/02/21 03:29:44;;;;;;;1.35;0.50;;;10.60;99.90;;;;;;2011780;71;21015;-76
2022/02/21 03:32:11;;;;;;;0.60;0.40;;;10.60;99.90;;;;;;2009706;71;21490;-76
2022/02/21 03:34:40;;;;;;;1.10;0.47;;;10.60;99.90;;;;;;2010858;71;21024;-88
2022/02/21 03:37:07;;;;;;;0.33;0.30;;;10.60;99.90;;;;;;2005648;71;21112;-87
2022/02/21 03:39:36;;;;;;;1.35;0.68;;;10.60;99.90;;;;;;2015604;71;21124;-85
2022/02/21 03:42:05;;;;;;;1.12;0.50;;;10.70;99.90;;;;;;2015176;71;21059;-84
2022/02/21 03:44:32;;;;;;;1.80;0.53;;;10.40;99.90;;;;;;2005750;71;21098;-88
2022/02/21 03:46:59;;;;;;;2.75;0.53;;;10.10;99.90;;;;;;2010744;71;21028;-84
2022/02/21 03:49:27;;;;;;;1.32;0.40;;;9.90;99.90;;;;;;1997018;71;21465;-82
2022/02/21 03:51:54;;;;;;;1.27;0.33;;;9.50;99.90;;;;;;2005444;71;21059;-77
2022/02/21 03:54:21;;;;;;;7.03;1.17;;;7.30;99.90;;;;;;2015320;71;21043;-75
2022/02/21 03:56:50;;;;;;;2.05;0.50;;;5.80;99.90;;;;;;2015162;71;21154;-77
2022/02/21 03:59:17;;;;;;;0.68;0.30;;;4.40;99.90;;;;;;2005493;71;21055;-77
2022/02/21 04:01:45;;;;;;;1.55;0.40;;;3.80;99.90;;;;;;2010220;71;21576;-79
2022/02/21 04:04:12;;;;;;;1.72;0.42;;;3.80;99.90;;;;;;2010148;71;21186;-77
2022/02/21 04:06:40;;;;;;;2.30;0.62;;;3.90;99.90;;;;;;2015144;71;21116;-77
2022/02/21 04:09:07;;;;;;;2.02;0.60;;;4.00;99.90;;;;;;2015285;71;21039;-76
2022/02/21 04:11:35;;;;;;;1.35;0.53;;;4.20;99.90;;;;;;2015268;71;21085;-80
2022/02/21 04:14:03;;;;;;;1.27;0.28;;;4.30;99.90;;;;;;2015294;71;21114;-80
2022/02/21 04:16:32;;;;;;;0.80;0.33;;;4.30;99.90;;;;;;2005435;71;21564;-81
2022/02/21 04:18:59;;;;;;;1.07;0.30;;;4.40;99.90;;;;;;2005352;71;21117;-78
2022/02/21 04:21:27;;;;;;;0.95;0.47;;;4.40;99.90;;;;;;2010336;71;21041;-81
2022/02/21 04:23:54;;;;;;;2.58;0.47;;;4.50;99.90;;;;;;2015332;71;21027;-80
2022/02/21 04:26:21;;;;;;;0.40;0.30;;;4.50;99.90;;;;;;2010202;71;21018;-80
2022/02/21 04:28:50;;;;;;;0.55;0.40;;;4.30;99.90;;;;;;2011312;71;21055;-83
2022/02/21 04:31:17;;;;;;;0.50;0.40;;;4.20;99.90;;;;;;2010061;71;21131;-83
2022/02/21 04:33:46;;;;;;;2.98;0.60;;;4.30;99.90;;;;;;2005349;71;21108;-81
2022/02/21 04:36:13;;;;;;;2.98;0.70;;;4.30;99.90;;;;;;2015541;71;21121;-80
2022/02/21 04:38:41;;;;;;;9.20;0.90;;;4.40;99.90;;;;;;2010432;71;21055;-81
2022/02/21 04:41:08;;;;;;;1.52;0.68;;;4.40;99.90;;;;;;2010409;71;21199;-83
2022/02/21 04:43:35;;;;;;;1.55;0.75;;;4.40;99.90;;;;;;2008390;71;21422;-82
2022/02/21 04:46:03;;;;;;;2.10;0.70;;;4.40;99.90;;;;;;2007962;71;21094;-83
2022/02/21 04:48:30;;;;;;;2.60;0.80;;;4.40;99.90;;;;;;2010368;71;21109;-81
2022/02/21 04:50:57;;;;;;;5.78;0.95;;;4.50;99.90;;;;;;2003318;71;21099;-83
2022/02/21 04:53:25;;;;;;;3.77;0.93;;;4.40;99.90;;;;;;2013871;71;21061;-85
2022/02/21 04:55:52;;;;;;;2.72;0.72;;;4.50;99.90;;;;;;2017350;71;21145;-83
2022/02/21 04:58:19;;;;;;;2.77;1.20;;;4.50;99.90;;;;;;2013503;71;21081;-85
2022/02/21 05:00:47;;;;;;;4.60;0.82;;;4.40;99.90;;;;;;2011378;71;21051;-86
2022/02/21 05:03:14;;;;;;;2.17;0.80;;;4.40;99.90;;;;;;2010746;71;21047;-87
2022/02/21 05:05:41;;;;;;;3.22;1.07;;;4.40;99.90;;;;;;2010500;71;21132;-86
2022/02/21 05:08:08;;;;;;;2.42;0.70;;;4.50;99.90;;;;;;2005825;71;21027;-88
2022/02/21 05:10:36;;;;;;;3.27;0.88;;;4.60;99.90;;;;;;2000521;71;21042;-81
2022/02/21 05:13:03;;;;;;;4.97;0.85;;;4.60;99.90;;;;;;2015398;71;21085;-85
2022/02/21 05:15:30;;;;;;;5.70;1.30;;;4.70;99.90;;;;;;2003265;71;21427;-86
2022/02/21 05:17:58;;;;;;;3.62;1.20;;;4.70;99.90;;;;;;2006770;71;21121;-87
2022/02/21 05:20:25;;;;;;;3.95;1.45;;;4.80;99.90;;;;;;1980317;71;21024;-86
2022/02/21 05:22:52;;;;;;;2.87;0.85;;;4.80;99.90;;;;;;2006403;71;21184;-84
2022/02/21 05:25:20;;;;;;;4.50;0.90;;;4.90;99.90;;;;;;2010809;71;21047;-87
2022/02/21 05:27:48;;;;;;;6.35;1.10;;;5.00;99.90;;;;;;2010866;71;21529;-82
2022/02/21 05:30:15;;;;;;;6.78;1.15;;;5.00;99.90;;;;;;2019594;71;20980;-88
2022/02/21 05:32:43;;;;;;;2.58;0.88;;;5.00;99.90;;;;;;2008070;71;21098;-85
2022/02/21 05:35:12;;;;;;;4.17;1.07;;;5.00;99.90;;;;;;2010589;71;21051;-84
2022/02/21 05:37:41;;;;;;;4.53;1.10;;;5.00;99.90;;;;;;2005406;71;21047;-86
2022/02/21 05:40:08;;;;;;;5.50;1.10;;;5.10;99.90;;;;;;2015309;71;21024;-86
2022/02/21 05:42:36;;;;;;;7.80;1.47;;;5.00;99.90;;;;;;2015857;71;21073;-87
2022/02/21 05:45:03;;;;;;;9.43;1.25;;;5.10;99.90;;;;;;2015352;71;21040;-86
2022/02/21 05:47:31;;;;;;;4.50;1.10;;;5.20;99.90;;;;;;2015625;71;21407;-87
2022/02/21 05:49:58;;;;;;;9.90;1.75;;;5.10;99.90;;;;;;2005566;71;21051;-78
2022/02/21 05:52:25;;;;;;;7.70;1.67;;;5.20;99.90;;;;;;2000465;71;21023;-88
2022/02/21 05:54:55;;;;;;;8.35;1.70;;;5.30;99.90;;;;;;2015572;71;21020;-84
2022/02/21 05:57:22;;;;;;;13.43;1.52;;;5.40;99.90;;;;;;2010347;71;21226;-84
2022/02/21 05:59:50;;;;;;;7.78;2.08;;;5.40;99.90;;;;;;2015536;71;21190;-87
2022/02/21 06:02:17;;;;;;;3.33;1.45;;;5.50;99.90;;;;;;2010594;71;21055;-85
2022/02/21 06:04:44;;;;;;;5.28;2.00;;;5.60;99.90;;;;;;1983277;71;21420;-86
2022/02/21 06:07:14;;;;;;;10.20;1.77;;;5.70;99.90;;;;;;2008405;71;21082;-86
2022/02/21 06:09:42;;;;;;;11.50;1.92;;;5.70;99.90;;;;;;2010960;71;21419;-83
2022/02/21 06:12:10;;;;;;;6.55;1.75;;;5.60;99.90;;;;;;2000537;71;21137;-81
2022/02/21 06:14:39;;;;;;;8.95;1.57;;;5.60;99.90;;;;;;1998254;71;21053;-78
2022/02/21 06:17:07;;;;;;;8.68;1.77;;;5.70;99.90;;;;;;2008775;71;21047;-88
2022/02/21 06:19:34;;;;;;;7.10;1.62;;;5.70;99.90;;;;;;2015588;71;21459;-79
2022/02/21 06:22:02;;;;;;;11.65;1.82;;;5.70;99.90;;;;;;2009001;71;21054;-84
2022/02/21 06:24:31;;;;;;;12.40;1.50;;;5.70;99.90;;;;;;2013110;71;21030;-84
2022/02/21 06:27:01;;;;;;;15.88;2.85;;;5.80;99.90;;;;;;2010558;71;21549;-84
2022/02/21 06:29:28;;;;;;;9.58;2.15;;;5.80;99.90;;;;;;2010870;71;21582;-81
2022/02/21 06:31:56;;;;;;;8.73;2.05;;;5.80;99.90;;;;;;1988860;71;21419;-84
2022/02/21 06:34:23;;;;;;;7.20;2.02;;;5.90;99.90;;;;;;2011414;71;21076;-81
2022/02/21 06:36:50;;;;;;;11.33;2.35;;;5.90;99.90;;;;;;2012273;71;21430;-80
2022/02/21 06:39:19;;;;;;;8.40;1.57;;;5.90;99.90;;;;;;2008747;71;21105;-78
2022/02/21 06:41:49;;;;;;;10.60;2.55;;;5.90;99.90;;;;;;2011224;71;21637;-74
2022/02/21 06:44:16;;;;;;;8.90;1.80;;;5.90;99.90;;;;;;2009346;71;21504;-73
2022/02/21 06:46:44;;;;;;;10.23;2.20;;;5.90;99.90;;;;;;2015225;71;21210;-75
2022/02/21 06:49:11;;;;;;;7.97;1.80;;;5.90;99.90;;;;;;2015156;71;21128;-76
2022/02/21 06:51:39;;;;;;;9.30;1.62;;;5.90;99.90;;;;;;2015164;71;21593;-74
2022/02/21 06:54:07;;;;;;;15.18;2.42;;;5.90;99.90;;;;;;2010249;71;21128;-78
2022/02/21 06:56:34;;;;;;;8.83;1.87;;;5.90;99.90;;;;;;2015122;71;21055;-79
2022/02/21 06:59:02;;;;;;;12.47;1.72;;;5.80;99.90;;;;;;2005250;71;21112;-73
2022/02/21 07:01:29;;;;;;;11.68;2.05;;;5.80;99.90;;;;;;2005630;71;21026;-74
2022/02/21 07:03:56;;;;;;;8.28;1.70;;;5.80;99.90;;;;;;2015485;71;21133;-74
2022/02/21 07:06:24;;;;;;;11.45;1.77;;;5.90;99.90;;;;;;2010584;71;21055;-76
2022/02/21 07:08:51;;;;;;;14.60;2.20;;;5.90;99.90;;;;;;2010390;71;21460;-75
2022/02/21 07:11:18;;;;;;;9.23;2.20;;;5.90;99.90;;;;;;2005270;71;21055;-74
2022/02/21 07:13:46;;;;;;;8.83;1.77;;;5.90;99.90;;;;;;2015216;71;21007;-74
2022/02/21 07:16:13;;;;;;;10.35;1.98;;;5.80;99.90;;;;;;2005367;71;21097;-77
2022/02/21 07:18:40;;;;;;;6.78;2.10;;;5.80;99.90;;;;;;2002076;71;21050;-74
2022/02/21 07:21:07;;;;;;;8.63;1.95;;;5.90;99.90;;;;;;2013662;71;20981;-74
2022/02/21 07:26:33;;;;;;;8.68;2.00;;;5.80;99.90;;;;;;2010168;71;21164;-76
2022/02/21 07:29:21;;;;;;;7.42;2.08;;;5.80;99.90;;;;;;2010120;71;21448;-76
2022/02/21 07:31:49;;;;;;;9.45;2.02;;;5.80;99.90;;;;;;1910193;74;21143;-74
2022/02/21 07:34:16;;;;;;;10.72;1.65;;;5.80;99.90;;;;;;1947733;73;21106;-74
2022/02/21 07:36:43;;;;;;;5.33;1.25;;;5.70;99.90;;;;;;1911409;75;20992;-76
2022/02/21 07:39:10;;;;;;;11.38;2.42;;;5.80;99.90;;;;;;1911477;74;21112;-76
2022/02/21 07:41:41;;;;;;;15.15;1.90;;;5.80;99.90;;;;;;1902742;73;21061;-80
2022/02/21 07:44:09;;;;;;;7.03;1.70;;;5.80;99.90;;;;;;1915965;73;21549;-75
2022/02/21 07:46:36;;;;;;;8.25;2.37;;;5.90;99.90;;;;;;1919632;73;21062;-75
2022/02/21 07:49:03;;;;;;;6.28;1.70;;;5.90;99.90;;;;;;1914811;74;21073;-75
2022/02/21 07:51:31;;;;;;;8.78;2.10;;;5.90;99.90;;;;;;1942651;72;21467;-78
2022/02/21 07:53:58;;;;;;;7.00;1.85;;;6.00;99.90;;;;;;1907251;73;21070;-74
2022/02/21 07:56:27;;;;;;;13.35;2.52;;;6.00;99.90;;;;;;1933182;73;21527;-75
2022/02/21 07:58:54;;;;;;;9.38;2.37;;;6.10;99.90;;;;;;1904463;74;21093;-75
2022/02/21 08:01:21;;;;;;;8.05;2.05;;;6.10;99.90;;;;;;1942343;73;21144;-75
2022/02/21 08:03:51;;;;;;;11.75;3.02;;;6.20;99.90;;;;;;1903335;73;21154;-75
2022/02/21 08:06:21;;;;;;;11.38;2.35;;;6.20;99.90;;;;;;1920991;74;21079;-74
2022/02/21 08:08:48;;;;;;;8.75;2.20;;;6.30;99.90;;;;;;1910031;73;21502;-75
2022/02/21 08:11:15;;;;;;;7.50;2.52;;;6.30;99.90;;;;;;1920502;73;21105;-74
2022/02/21 08:13:42;;;;;;;14.30;2.10;;;6.30;99.90;;;;;;1907148;73;21222;-75
2022/02/21 08:16:10;;;;;;;12.63;2.67;;;6.40;99.90;;;;;;1946974;74;20987;-75
2022/02/21 08:18:38;;;;;;;14.15;3.33;;;6.50;99.90;;;;;;1911325;73;21124;-76
2022/02/21 08:21:06;;;;;;;11.65;2.37;;;6.60;99.90;;;;;;1933296;74;21180;-76
2022/02/21 08:23:33;;;;;;;12.18;2.12;;;6.80;99.90;;;;;;1931137;72;21059;-75
2022/02/21 08:26:00;;;;;;;12.60;2.85;;;6.80;99.90;;;;;;1913543;74;21498;-76
2022/02/21 08:28:28;;;;;;;12.88;2.75;;;6.70;99.90;;;;;;1941882;72;21140;-76
2022/02/21 08:30:55;;;;;;;14.25;2.62;;;6.70;99.90;;;;;;1905825;73;21182;-74
2022/02/21 08:33:22;;;;;;;12.10;2.62;;;6.80;99.90;;;;;;1908083;73;21458;-76
2022/02/21 08:35:52;;;;;;;11.85;2.00;;;6.90;99.90;;;;;;1901727;74;21066;-75
2022/02/21 08:38:19;;;;;;;12.98;2.92;;;7.00;99.90;;;;;;1936998;73;21088;-81
2022/02/21 08:40:48;;;;;;;9.33;2.58;;;7.00;99.90;;;;;;1899943;73;21077;-74
2022/02/21 08:43:17;;;;;;;13.90;2.22;;;7.10;99.90;;;;;;1907955;74;21526;-78
2022/02/21 08:45:45;;;;;;;11.75;2.27;;;7.10;99.90;;;;;;1938358;73;21503;-76
2022/02/21 08:48:12;;;;;;;12.63;1.98;;;7.20;99.90;;;;;;1915278;73;21043;-76
2022/02/21 08:50:39;;;;;;;9.05;2.08;;;7.10;99.90;;;;;;1929539;73;21465;-77
2022/02/21 08:53:07;;;;;;;9.23;2.22;;;7.00;99.90;;;;;;1911811;73;21066;-74
2022/02/21 08:55:34;;;;;;;10.35;2.35;;;7.10;99.90;;;;;;1942683;73;21055;-77
2022/02/21 08:58:01;;;;;;;9.08;2.25;;;7.00;99.90;;;;;;1910271;75;21105;-77
2022/02/21 09:00:29;;;;;;;12.63;2.70;;;7.00;99.90;;;;;;1937074;73;21205;-76
2022/02/21 09:02:57;;;;;;;13.05;2.55;;;7.10;99.90;;;;;;1906675;73;21051;-75
2022/02/21 09:05:25;;;;;;;9.25;2.42;;;7.10;99.90;;;;;;1933259;73;21137;-76
2022/02/21 09:07:53;;;;;;;12.53;2.47;;;7.10;99.90;;;;;;1946807;72;21124;-78
2022/02/21 09:10:21;;;;;;;8.68;2.27;;;7.20;99.90;;;;;;1904073;73;21070;-78
2022/02/21 09:12:48;;;;;;;13.80;2.58;;;7.40;99.90;;;;;;1933191;74;21039;-75
2022/02/21 09:15:16;;;;;;;7.42;2.20;;;7.70;99.90;;;;;;1942150;73;21168;-77
2022/02/21 09:17:43;;;;;;;19.70;3.08;;;7.90;99.90;;;;;;1911457;74;21039;-77
2022/02/21 09:20:10;;;;;;;10.55;2.37;;;7.90;99.90;;;;;;1937832;73;21071;-75
2022/02/21 09:22:38;;;;;;;8.53;2.40;;;7.70;99.90;;;;;;1957506;72;21132;-76
2022/02/21 09:25:05;;;;;;;13.88;2.08;;;7.80;99.90;;;;;;1906681;74;21498;-76
2022/02/21 09:27:33;;;;;;;5.75;1.62;;;7.70;99.90;;;;;;1933447;74;21440;-74
2022/02/21 09:30:00;;;;;;;7.80;1.90;;;7.80;99.90;;;;;;1929970;73;21065;-79
2022/02/21 09:32:29;;;;;;;10.45;2.12;;;7.90;99.90;;;;;;1920745;73;21423;-80
2022/02/21 09:34:56;;;;;;;12.25;2.40;;;7.80;99.90;;;;;;1911732;73;21154;-78
2022/02/21 09:37:26;;;;;;;9.85;2.30;;;7.70;99.90;;;;;;1933899;73;21043;-75
2022/02/21 09:39:53;;;;;;;11.95;2.27;;;7.80;99.90;;;;;;1947181;73;21136;-78
2022/02/21 09:42:22;;;;;;;13.45;2.75;;;7.90;99.90;;;;;;1892571;73;21066;-76
2022/02/21 09:44:49;;;;;;;12.40;2.55;;;7.80;99.90;;;;;;1905151;73;21081;-81
2022/02/21 09:47:17;;;;;;;7.80;2.15;;;7.90;99.90;;;;;;1927944;73;21532;-76
2022/02/21 09:49:44;;;;;;;9.13;1.92;;;7.90;99.90;;;;;;1907252;73;21049;-75
2022/02/21 09:52:12;;;;;;;7.90;2.17;;;7.80;99.90;;;;;;1932443;73;21037;-77
2022/02/21 09:54:40;;;;;;;18.37;2.80;;;7.60;99.90;;;;;;1939890;73;21469;-75
2022/02/21 09:57:07;;;;;;;11.53;2.22;;;7.50;99.90;;;;;;1904325;74;21474;-75
2022/02/21 09:59:35;;;;;;;10.80;2.52;;;7.90;99.90;;;;;;1923736;73;21136;-75
2022/02/21 10:02:02;;;;;;;6.25;2.05;;;8.10;99.90;;;;;;1907178;73;21055;-75
2022/02/21 10:04:29;;;;;;;22.25;2.37;;;8.30;99.90;;;;;;1933130;74;21376;-78
2022/02/21 10:06:57;;;;;;;10.53;2.35;;;8.10;99.90;;;;;;1946820;73;21453;-76
2022/02/21 10:09:25;;;;;;;6.72;1.72;;;8.10;99.90;;;;;;1910966;74;21139;-75
2022/02/21 10:11:56;;;;;;;15.43;2.20;;;8.40;99.90;;;;;;1915512;73;21164;-76
2022/02/21 10:14:29;;;;;;;6.55;2.08;;;8.60;99.90;;;;;;1937484;73;21097;-76
2022/02/21 10:16:58;;;;;;;9.05;2.30;;;8.60;99.90;;;;;;1902122;73;21113;-80
2022/02/21 10:19:36;;;;;;;7.70;2.17;;;8.30;99.90;;;;;;1908086;75;21144;-78
2022/02/21 10:22:05;;;;;;;15.32;2.30;;;8.60;99.90;;;;;;1932276;73;21098;-82
2022/02/21 10:24:37;;;;;;;6.87;2.10;;;9.10;99.90;;;;;;1905506;73;21153;-80
2022/02/21 10:27:15;;;;;;;7.22;1.75;;;9.30;99.90;;;;;;1914114;75;21018;-79
2022/02/21 10:30:00;;;;;;;11.40;2.75;;;9.20;99.90;;;;;;1937331;73;21058;-79
2022/02/21 10:32:29;;;;;;;10.78;2.25;;;8.80;99.90;;;;;;1901366;74;21073;-79
2022/02/21 10:34:58;;;;;;;7.95;2.02;;;9.10;99.90;;;;;;1909865;74;21162;-78
2022/02/21 10:37:27;;;;;;;13.70;1.92;;;9.20;99.90;;;;;;1895433;74;21179;-79
2022/02/21 10:40:10;;;;;;;11.20;2.10;;;9.60;99.90;;;;;;1950308;73;21117;-80
2022/02/21 10:42:38;;;;;;;5.83;2.00;;;9.60;99.90;;;;;;1881088;73;21162;-81
2022/02/21 10:45:14;;;;;;;6.42;1.87;;;9.50;99.90;;;;;;1908670;73;21110;-77
2022/02/21 10:48:00;;;;;;;5.30;1.65;;;9.40;99.90;;;;;;1909405;74;21036;-83
2022/02/21 10:50:29;;;;;;;6.20;1.95;;;8.80;99.90;;;;;;1840775;77;21101;-81
2022/02/21 10:52:57;;;;;;;8.45;2.22;;;9.00;99.90;;;;;;1913076;74;21126;-79
2022/02/21 10:55:35;;;;;;;12.70;2.08;;;9.50;99.90;;;;;;1935136;73;21057;-76
2022/02/21 10:58:19;;;;;;;8.83;2.47;;;9.50;99.90;;;;;;1918039;73;21147;-79
2022/02/21 11:00:52;;;;;;;3.92;1.72;;;9.00;99.90;;;;;;1927337;73;21459;-75
2022/02/21 11:03:21;;;;;;;7.10;1.72;;;8.90;99.90;;;;;;1893070;74;21077;-76
2022/02/21 11:05:49;;;;;;;11.45;1.90;;;9.10;99.90;;;;;;1945381;74;21038;-76
2022/02/21 11:08:17;;;;;;;6.08;1.55;;;8.70;99.90;;;;;;1894686;74;21478;-81
2022/02/21 11:10:46;;;;;;;8.33;1.57;;;9.10;99.90;;;;;;1914017;73;21042;-78
2022/02/21 11:13:14;;;;;;;4.25;1.70;;;9.70;99.90;;;;;;1944776;72;21054;-77
2022/02/21 11:15:41;;;;;;;7.33;1.50;;;10.40;99.90;;;;;;1911686;73;21066;-74
2022/02/21 11:18:12;;;;;;;7.90;1.77;;;10.40;99.90;;;;;;1933763;73;21040;-76
2022/02/21 11:20:39;;;;;;;6.62;1.55;;;10.20;99.90;;;;;;1901264;74;21117;-77
2022/02/21 11:23:07;;;;;;;6.60;1.62;;;10.40;99.90;;;;;;1932971;73;21054;-79
2022/02/21 11:25:50;;;;;;;11.00;1.87;;;9.80;99.90;;;;;;1907005;73;21533;-75
2022/02/21 11:28:19;;;;;;;2.45;1.05;;;9.20;99.90;;;;;;1910152;73;21442;-76
2022/02/21 11:30:47;;;;;;;2.65;1.30;;;8.60;99.90;;;;;;1910738;74;21035;-78
2022/02/21 11:33:15;;;;;;;5.25;1.77;;;8.60;99.90;;;;;;1922974;73;21030;-80
2022/02/21 11:36:05;;;;;;;9.05;1.70;;;8.50;99.90;;;;;;1904193;73;21065;-77
2022/02/21 11:38:33;;;;;;;6.90;2.10;;;8.30;99.90;;;;;;1918702;73;21048;-80
2022/02/21 11:41:03;;;;;;;9.88;1.90;;;8.20;99.90;;;;;;1932006;73;21057;-75
2022/02/21 11:43:35;;;;;;;10.85;1.95;;;8.20;99.90;;;;;;1915735;75;21074;-79
2022/02/21 11:46:25;;;;;;;5.40;1.67;;;8.40;99.90;;;;;;1925651;73;21077;-76
2022/02/21 11:49:01;;;;;;;5.12;1.30;;;8.40;99.90;;;;;;1855459;75;21052;-77
2022/02/21 11:51:33;;;;;;;6.70;1.75;;;8.30;99.90;;;;;;1919884;73;21402;-76
2022/02/21 11:54:16;;;;;;;9.28;2.12;;;8.40;99.90;;;;;;1919410;73;21050;-81
2022/02/21 11:56:53;;;;;;;7.05;1.90;;;8.40;99.90;;;;;;1924704;73;21069;-77
2022/02/21 11:59:31;;;;;;;5.15;1.67;;;8.40;99.90;;;;;;1916822;75;21166;-79
2022/02/21 12:02:12;;;;;;;4.95;1.55;;;8.50;99.90;;;;;;1945230;73;21092;-78
2022/02/21 12:05:00;;;;;;;10.03;1.75;;;8.60;99.90;;;;;;1911673;73;21083;-75
2022/02/21 12:07:31;;;;;;;7.47;1.50;;;9.00;99.90;;;;;;1899941;74;21050;-74
2022/02/21 12:10:25;;;;;;;6.45;1.85;;;9.40;99.90;;;;;;1877359;75;21456;-75
2022/02/21 12:13:00;;;;;;;6.72;1.95;;;9.20;99.90;;;;;;1930656;73;21469;-76
2022/02/21 12:15:34;;;;;;;8.00;1.90;;;9.20;99.90;;;;;;1907065;74;21480;-76
2022/02/21 12:18:12;;;;;;;6.75;2.05;;;9.30;99.90;;;;;;1916196;73;21051;-77
2022/02/21 12:20:40;;;;;;;6.55;2.02;;;9.00;99.90;;;;;;1912540;73;21206;-74
2022/02/21 12:23:15;;;;;;;6.97;1.37;;;9.00;99.90;;;;;;1947156;74;21427;-77
2022/02/21 12:26:00;;;;;;;5.20;1.70;;;9.10;99.90;;;;;;1895183;74;21066;-75
2022/02/21 12:28:29;;;;;;;5.12;1.40;;;9.00;99.90;;;;;;1915982;74;21082;-75
2022/02/21 12:30:59;;;;;;;6.67;1.10;;;9.00;99.90;;;;;;1947087;73;21035;-75
2022/02/21 12:33:29;;;;;;;4.08;1.00;;;9.10;99.90;;;;;;1901916;73;21051;-75
2022/02/21 12:36:00;;;;;;;3.87;1.30;;;9.20;99.90;;;;;;1911376;73;21102;-72
2022/02/21 12:38:29;;;;;;;3.33;1.27;;;9.00;99.90;;;;;;1934001;73;21148;-77
2022/02/21 12:41:02;;;;;;;6.80;1.32;;;8.70;99.90;;;;;;1921876;73;21050;-75
2022/02/21 12:43:52;;;;;;;4.20;1.35;;;8.70;99.90;;;;;;1909191;73;21099;-78
2022/02/21 12:46:22;;;;;;;4.95;1.67;;;8.70;99.90;;;;;;1919459;73;21078;-76
2022/02/21 12:48:49;;;;;;;6.80;1.82;;;8.70;99.90;;;;;;1937291;73;21128;-81
2022/02/21 12:51:33;;;;;;;4.55;1.67;;;8.60;99.90;;;;;;1911439;75;21065;-83
2022/02/21 12:54:05;;;;;;;4.87;1.32;;;8.50;99.90;;;;;;1933231;74;21113;-81
2022/02/21 12:56:48;;;;;;;7.60;1.62;;;8.50;99.90;;;;;;1929770;72;21065;-78
2022/02/21 12:59:17;;;;;;;8.15;1.50;;;8.50;99.90;;;;;;1906377;74;21085;-81
2022/02/21 13:01:44;;;;;;;15.58;1.80;;;8.40;99.90;;;;;;1944293;73;21081;-77
2022/02/21 13:04:12;;;;;;;5.53;1.60;;;8.40;99.90;;;;;;1893167;73;21136;-78